עמוד ראשי
METAR-TAF:

METAR-TAF

שדות תעופה :

נום, אלסקה, ארצות הברית

קו רוחב: 64-30-43N, קו אורך: 165-26-42W, גובה: 11מטר

תצפית מזג אוויר נוכחית

הדו"ח נערך לפני 1 שעות ו 5דקות, בשעה 16:53 UTC
רוח 4קשר מכיוון דרום-מזרח
טמפרטורת 6 צלסיוס
לחות 81%
לחץ 1013 hPa
ראות: 16.1קילומטר
שמיים נקיים

METAR: PAOM 191653Z 13004KT 10SM CLR 06/03 A2992 RMK AO2 SLP131 T00560028

זמן: 09:58 (17:58 UTC)

תחזית

הדו"ח נערך לפני 38דקות, בשעה 17:20 UTC
תחזית בתוקף מ 19 ב 18 UTC עד 20 ב 18 UTC
רוח 5קשר מכיוון מערב
ראות: 10קילומטר
עננים פזורים בגובה 2500רגל
מעונן בגובה 4000רגל
ממטרים במרחב,

TAF: PAOM 191720Z 1918/2018 27005KT P6SM VCSH SCT025 OVC040

תצפיות ותחזיות מזג אוויר לגבי יותר מ- 4,000 שדות תעופה ברחבי העולם. דוחות METAR ו- TAF.

התחנות הזמינות מסומנות בנקודות צהובות ואדומות על גבי המפה.

העבר את העכבר לנקודה הצבעונית על מנת לראות את שם התחנה.

לאחר מכן, לחץ כדי לראות את תוכן ואת תחזיות מזג האוויר.

כדי לשנות את המפה: לחץ על הכפתורים הירוקים עם הפלוס השחור כדי להתקרב; על הכפתור הירוק עם המקף כדי להתרחק; או בחיצים הירוקים למפות סמוכות.


METAR-TAF: